createdAt,value
2023-01-07T00:00:05.571Z,71.70
2023-01-07T00:02:40.513Z,71.38
2023-01-07T00:05:09.516Z,71.61
2023-01-07T00:07:37.895Z,71.80
2023-01-07T00:10:07.030Z,71.69
2023-01-07T00:12:35.369Z,71.82
2023-01-07T00:15:03.645Z,71.85
2023-01-07T00:17:32.004Z,71.91
2023-01-07T00:20:01.706Z,71.88
2023-01-07T00:22:30.027Z,71.86
2023-01-07T00:24:58.411Z,71.79
2023-01-07T00:27:26.717Z,71.62
2023-01-07T00:29:55.089Z,71.42
2023-01-07T00:32:43.428Z,71.72
2023-01-07T00:35:23.080Z,71.45
2023-01-07T00:37:52.346Z,71.48
2023-01-07T00:40:21.528Z,71.88
2023-01-07T00:42:55.723Z,71.54
2023-01-07T00:45:25.415Z,71.85
2023-01-07T00:47:54.129Z,71.88
2023-01-07T00:50:26.042Z,71.60
2023-01-07T00:52:54.517Z,72.06
2023-01-07T00:55:23.499Z,72.05
2023-01-07T00:57:52.052Z,72.26
2023-01-07T01:00:22.204Z,71.70
2023-01-07T01:02:51.294Z,71.81
2023-01-07T01:05:20.657Z,71.99
2023-01-07T01:07:50.616Z,71.68
2023-01-07T01:10:21.037Z,71.90
2023-01-07T01:12:50.159Z,72.08
2023-01-07T01:15:18.773Z,71.92
2023-01-07T01:17:47.076Z,72.29
2023-01-07T01:20:18.470Z,71.74
2023-01-07T01:22:46.953Z,71.59
2023-01-07T01:25:16.688Z,72.20
2023-01-07T01:27:45.136Z,71.93
2023-01-07T01:30:14.023Z,72.10
2023-01-07T01:32:42.363Z,71.66
2023-01-07T01:35:11.160Z,72.12
2023-01-07T01:37:39.758Z,72.02
2023-01-07T01:40:09.244Z,72.31
2023-01-07T01:42:39.013Z,72.04
2023-01-07T01:45:08.429Z,72.21
2023-01-07T01:47:42.082Z,72.52
2023-01-07T01:50:17.487Z,72.64
2023-01-07T01:52:51.904Z,72.09
2023-01-07T01:55:27.051Z,72.42
2023-01-07T01:58:01.283Z,72.31
2023-01-07T02:00:30.366Z,72.71
2023-01-07T02:03:00.662Z,72.31
2023-01-07T02:05:33.930Z,72.56
2023-01-07T02:08:02.262Z,72.64
2023-01-07T02:10:31.912Z,72.35
2023-01-07T02:13:17.853Z,72.28
2023-01-07T02:15:55.296Z,72.47
2023-01-07T02:18:48.763Z,72.53
2023-01-07T02:21:28.281Z,72.37
2023-01-07T02:24:32.810Z,72.00
2023-01-07T02:27:16.471Z,72.05
2023-01-07T02:30:33.130Z,72.03
2023-01-07T02:33:20.058Z,72.29
2023-01-07T02:36:00.788Z,71.76
2023-01-07T02:38:38.531Z,72.37
2023-01-07T02:41:16.712Z,72.30
2023-01-07T02:43:54.117Z,71.79
2023-01-07T02:46:28.487Z,72.11
2023-01-07T02:49:01.420Z,71.77
2023-01-07T02:51:34.634Z,72.05
2023-01-07T02:54:03.285Z,72.30
2023-01-07T02:56:45.068Z,72.02
2023-01-07T02:59:33.930Z,72.08
2023-01-07T03:02:37.893Z,72.29
2023-01-07T03:05:24.194Z,72.04
2023-01-07T03:08:14.491Z,71.94
2023-01-07T03:10:50.948Z,72.18
2023-01-07T03:13:24.442Z,71.57
2023-01-07T03:15:58.584Z,71.88
2023-01-07T03:18:30.247Z,71.78
2023-01-07T03:21:04.402Z,71.79
2023-01-07T03:23:32.821Z,72.17
2023-01-07T03:26:05.691Z,72.12
2023-01-07T03:28:40.573Z,72.66
2023-01-07T03:31:13.653Z,72.55
2023-01-07T03:33:47.393Z,72.64
2023-01-07T03:36:20.565Z,72.15
2023-01-07T03:38:50.757Z,72.13
2023-01-07T03:41:33.318Z,72.23
2023-01-07T03:44:01.795Z,72.46
2023-01-07T03:46:30.307Z,72.39
2023-01-07T03:48:58.720Z,71.90
2023-01-07T03:51:28.437Z,72.06
2023-01-07T03:53:56.794Z,71.84
2023-01-07T03:56:25.344Z,72.48
2023-01-07T03:58:53.756Z,72.25
2023-01-07T04:01:22.193Z,72.26
2023-01-07T04:03:50.609Z,72.43
2023-01-07T04:06:18.960Z,72.53
2023-01-07T04:08:48.784Z,72.59
2023-01-07T04:11:17.181Z,72.50
2023-01-07T04:13:45.704Z,72.47
2023-01-07T04:16:14.147Z,72.62
2023-01-07T04:18:42.583Z,71.93
2023-01-07T04:21:10.918Z,71.98
2023-01-07T04:23:39.250Z,72.34
2023-01-07T04:26:09.021Z,72.28
2023-01-07T04:28:37.412Z,72.65
2023-01-07T04:31:05.953Z,72.20
2023-01-07T04:33:34.384Z,72.63
2023-01-07T04:36:02.759Z,72.74
2023-01-07T04:38:31.104Z,72.63
2023-01-07T04:40:59.680Z,72.40
2023-01-07T04:43:29.437Z,72.68
2023-01-07T04:45:57.841Z,72.76
2023-01-07T04:48:26.126Z,72.67
2023-01-07T04:50:54.450Z,72.27
2023-01-07T04:53:22.831Z,72.27
2023-01-07T04:55:51.730Z,73.00
2023-01-07T04:58:20.041Z,72.41
2023-01-07T05:00:51.284Z,72.78
2023-01-07T05:03:20.410Z,72.65
2023-01-07T05:05:48.744Z,72.90
2023-01-07T05:08:17.097Z,72.99
2023-01-07T05:10:45.467Z,72.93
2023-01-07T05:13:16.335Z,72.69
2023-01-07T05:15:44.756Z,72.74
2023-01-07T05:18:15.283Z,73.10
2023-01-07T05:20:44.288Z,72.87
2023-01-07T05:23:12.568Z,72.96
2023-01-07T05:25:40.919Z,72.72
2023-01-07T05:28:09.237Z,72.96
2023-01-07T05:30:37.611Z,72.75
2023-01-07T05:33:07.225Z,72.73
2023-01-07T05:35:37.210Z,72.66
2023-01-07T05:38:05.648Z,73.12
2023-01-07T05:40:33.980Z,73.24
2023-01-07T05:43:02.325Z,72.99
2023-01-07T05:45:30.712Z,73.14
2023-01-07T05:47:59.093Z,72.83
2023-01-07T05:50:27.415Z,72.39
2023-01-07T05:52:57.308Z,72.54
2023-01-07T05:55:25.612Z,72.97
2023-01-07T05:57:53.952Z,72.69
2023-01-07T06:00:22.462Z,72.77
2023-01-07T06:02:50.830Z,72.79
2023-01-07T06:05:19.359Z,73.39
2023-01-07T06:07:47.752Z,73.12
2023-01-07T06:10:17.650Z,73.20
2023-01-07T06:12:46.041Z,73.14
2023-01-07T06:15:14.444Z,73.25
2023-01-07T06:17:42.986Z,73.16
2023-01-07T06:20:12.971Z,73.34
2023-01-07T06:22:42.909Z,72.82
2023-01-07T06:25:11.794Z,73.11
2023-01-07T06:27:41.855Z,72.46
2023-01-07T06:30:12.323Z,73.09
2023-01-07T06:32:42.025Z,72.67
2023-01-07T06:35:12.294Z,72.65
2023-01-07T06:37:40.761Z,73.14
2023-01-07T06:40:10.085Z,72.86
2023-01-07T06:42:38.474Z,72.33
2023-01-07T06:45:09.254Z,72.54
2023-01-07T06:47:37.741Z,72.79
2023-01-07T06:50:06.814Z,72.88
2023-01-07T06:52:35.440Z,72.52
2023-01-07T06:55:04.000Z,72.51
2023-01-07T06:57:33.075Z,72.51
2023-01-07T07:00:01.455Z,72.96
2023-01-07T07:02:31.228Z,72.59
2023-01-07T07:04:59.644Z,73.01
2023-01-07T07:07:28.013Z,73.00
2023-01-07T07:09:56.381Z,72.73
2023-01-07T07:12:24.800Z,73.03
2023-01-07T07:14:53.164Z,73.22
2023-01-07T07:17:21.476Z,72.99
2023-01-07T07:19:52.752Z,73.11
2023-01-07T07:22:21.073Z,73.10
2023-01-07T07:24:49.478Z,72.71
2023-01-07T07:27:17.946Z,72.89
2023-01-07T07:29:46.301Z,72.53
2023-01-07T07:32:14.643Z,73.09
2023-01-07T07:34:43.344Z,73.08
2023-01-07T07:37:13.065Z,72.68
2023-01-07T07:39:41.381Z,72.63
2023-01-07T07:42:09.795Z,72.83
2023-01-07T07:44:38.183Z,72.46
2023-01-07T07:47:06.666Z,72.46
2023-01-07T07:49:35.080Z,72.81
2023-01-07T07:52:03.473Z,72.45
2023-01-07T07:54:33.239Z,72.73
2023-01-07T07:57:03.821Z,72.57
2023-01-07T07:59:32.268Z,73.04
2023-01-07T08:02:00.894Z,72.81
2023-01-07T08:04:34.039Z,73.00
2023-01-07T08:07:02.611Z,72.69
2023-01-07T08:09:31.269Z,72.83
2023-01-07T08:12:00.995Z,72.77
2023-01-07T08:14:29.550Z,72.99
2023-01-07T08:16:57.899Z,72.57
2023-01-07T08:19:26.279Z,72.66
2023-01-07T08:21:54.638Z,72.36
2023-01-07T08:24:22.989Z,72.26
2023-01-07T08:26:55.493Z,72.07
2023-01-07T08:29:25.408Z,72.52
2023-01-07T08:31:53.876Z,72.09
2023-01-07T08:34:23.791Z,72.00
2023-01-07T08:36:53.516Z,71.84
2023-01-07T08:39:21.898Z,72.49
2023-01-07T08:41:50.252Z,72.44
2023-01-07T08:44:18.700Z,71.94
2023-01-07T08:46:48.470Z,71.76
2023-01-07T08:49:16.942Z,72.25
2023-01-07T08:51:45.364Z,72.13
2023-01-07T08:54:13.857Z,72.31
2023-01-07T08:56:42.381Z,71.79
2023-01-07T08:59:10.889Z,72.54
2023-01-07T09:01:39.486Z,72.38
2023-01-07T09:04:09.192Z,72.25
2023-01-07T09:06:37.540Z,72.07
2023-01-07T09:09:14.353Z,72.86
2023-01-07T09:11:42.719Z,72.52
2023-01-07T09:14:11.117Z,72.23
2023-01-07T09:16:39.490Z,72.58
2023-01-07T09:19:09.453Z,72.88
2023-01-07T09:21:37.861Z,72.39
2023-01-07T09:24:06.581Z,72.87
2023-01-07T09:26:34.997Z,72.81
2023-01-07T09:29:03.364Z,72.31
2023-01-07T09:31:31.780Z,72.70
2023-01-07T09:34:00.238Z,72.81
2023-01-07T09:36:29.979Z,72.98
2023-01-07T09:38:58.388Z,72.88
2023-01-07T09:41:33.300Z,73.14
2023-01-07T09:44:15.766Z,73.01
2023-01-07T09:46:45.900Z,73.15
2023-01-07T09:49:19.528Z,73.25
2023-01-07T09:51:55.518Z,73.33
2023-01-07T09:54:30.549Z,73.27
2023-01-07T09:56:58.953Z,73.13
2023-01-07T09:59:27.335Z,73.15
2023-01-07T10:02:00.780Z,73.19
2023-01-07T10:04:39.178Z,72.93
2023-01-07T10:07:20.391Z,73.12
2023-01-07T10:10:01.888Z,73.06
2023-01-07T10:12:34.531Z,72.77
2023-01-07T10:15:29.293Z,73.01
2023-01-07T10:18:14.217Z,72.96
2023-01-07T10:20:51.820Z,72.67
2023-01-07T10:23:26.112Z,73.06
2023-01-07T10:25:57.429Z,73.14
2023-01-07T10:28:31.965Z,73.06
2023-01-07T10:31:01.589Z,73.00
2023-01-07T10:33:33.526Z,72.83
2023-01-07T10:36:11.307Z,72.90
2023-01-07T10:38:44.064Z,73.00
2023-01-07T10:41:22.625Z,72.86
2023-01-07T10:44:08.165Z,72.65
2023-01-07T10:46:59.167Z,72.46
2023-01-07T10:49:41.722Z,72.49
2023-01-07T10:52:18.760Z,72.36
2023-01-07T10:55:06.299Z,72.31
2023-01-07T10:57:35.351Z,71.79
2023-01-07T11:00:07.801Z,71.48
2023-01-07T11:02:36.222Z,71.42
2023-01-07T11:05:05.003Z,71.01
2023-01-07T11:07:43.910Z,70.45
2023-01-07T11:10:17.452Z,70.09
2023-01-07T11:12:52.272Z,69.81
2023-01-07T11:15:25.122Z,69.38
2023-01-07T11:17:57.428Z,69.40
2023-01-07T11:20:49.350Z,69.23
2023-01-07T11:23:29.211Z,68.44
2023-01-07T11:26:11.709Z,68.60
2023-01-07T11:28:44.900Z,68.39
2023-01-07T11:31:13.241Z,68.47
2023-01-07T11:34:01.475Z,68.42
2023-01-07T11:36:41.961Z,67.53
2023-01-07T11:39:12.800Z,67.77
2023-01-07T11:41:52.992Z,67.37
2023-01-07T11:44:21.666Z,67.48
2023-01-07T11:46:50.236Z,67.25
2023-01-07T11:49:25.013Z,66.81
2023-01-07T11:51:53.830Z,67.05
2023-01-07T11:54:24.608Z,66.34
2023-01-07T11:56:55.480Z,66.37
2023-01-07T11:59:29.892Z,66.40
2023-01-07T12:02:00.518Z,66.38
2023-01-07T12:04:30.947Z,66.38
2023-01-07T12:07:02.385Z,65.68
2023-01-07T12:09:38.522Z,65.87
2023-01-07T12:12:34.778Z,65.64
2023-01-07T12:15:17.930Z,65.42
2023-01-07T12:17:48.755Z,65.23
2023-01-07T12:21:02.017Z,64.86
2023-01-07T12:23:41.349Z,64.63
2023-01-07T12:26:16.783Z,64.64
2023-01-07T12:29:05.280Z,64.32
2023-01-07T12:31:45.314Z,64.40
2023-01-07T12:34:27.219Z,63.86
2023-01-07T12:37:00.771Z,63.82
2023-01-07T12:39:34.589Z,63.63
2023-01-07T12:42:09.171Z,63.41
2023-01-07T12:44:45.489Z,63.17
2023-01-07T12:47:30.743Z,62.83
2023-01-07T12:50:06.033Z,62.10
2023-01-07T12:52:42.665Z,61.23
2023-01-07T12:55:20.954Z,60.67
2023-01-07T12:58:00.260Z,60.13
2023-01-07T13:00:34.695Z,60.15
2023-01-07T13:03:11.681Z,59.56
2023-01-07T13:05:43.834Z,59.47
2023-01-07T13:08:19.525Z,59.36
2023-01-07T13:10:53.341Z,59.07
2023-01-07T13:13:26.158Z,58.95
2023-01-07T13:15:56.855Z,58.85
2023-01-07T13:18:25.440Z,58.75
2023-01-07T13:21:08.537Z,57.58
2023-01-07T13:24:07.244Z,57.59
2023-01-07T13:26:47.129Z,57.60
2023-01-07T13:29:26.888Z,57.29
2023-01-07T13:32:29.424Z,56.24
2023-01-07T13:35:30.406Z,56.77
2023-01-07T13:38:15.424Z,55.51
2023-01-07T13:41:08.681Z,54.96
2023-01-07T13:43:53.381Z,55.31
2023-01-07T13:46:25.382Z,55.54
2023-01-07T13:48:55.637Z,55.34
2023-01-07T13:51:29.561Z,54.95
2023-01-07T13:53:58.642Z,54.82
2023-01-07T13:56:37.434Z,54.13
2023-01-07T13:59:26.280Z,54.97
2023-01-07T14:02:18.339Z,54.28
2023-01-07T14:05:04.531Z,54.58
2023-01-07T14:07:43.768Z,54.86
2023-01-07T14:10:20.381Z,54.09
2023-01-07T14:13:12.963Z,53.48
2023-01-07T14:16:07.215Z,53.38
2023-01-07T14:19:00.929Z,53.64
2023-01-07T14:21:53.031Z,53.66
2023-01-07T14:24:48.624Z,53.61
2023-01-07T14:27:58.200Z,54.24
2023-01-07T14:30:31.572Z,55.63
2023-01-07T14:33:02.859Z,56.05
2023-01-07T14:35:35.250Z,56.27
2023-01-07T14:38:47.936Z,55.75
2023-01-07T14:41:18.790Z,56.83
2023-01-07T14:43:50.133Z,56.93
2023-01-07T14:46:53.766Z,56.57
2023-01-07T14:49:42.483Z,56.86
2023-01-07T14:52:21.303Z,57.35
2023-01-07T14:55:22.214Z,57.37
2023-01-07T14:58:04.944Z,57.95
2023-01-07T15:00:59.499Z,57.37
2023-01-07T15:03:54.862Z,57.13
2023-01-07T15:06:27.898Z,57.66
2023-01-07T15:09:21.765Z,57.99
2023-01-07T15:12:11.546Z,57.90
2023-01-07T15:15:13.145Z,58.59
2023-01-07T15:17:42.306Z,58.79
2023-01-07T15:20:11.988Z,59.21
2023-01-07T15:23:04.061Z,59.11
2023-01-07T15:25:45.840Z,59.71
2023-01-07T15:28:22.424Z,59.90
2023-01-07T15:31:00.825Z,60.07
2023-01-07T15:33:59.356Z,59.72
2023-01-07T15:36:30.619Z,60.15
2023-01-07T15:39:02.001Z,60.48
2023-01-07T15:41:33.409Z,60.31
2023-01-07T15:44:04.594Z,60.63
2023-01-07T15:46:35.038Z,60.35
2023-01-07T15:49:14.955Z,60.43
2023-01-07T15:51:46.062Z,60.93
2023-01-07T15:54:26.009Z,60.60
2023-01-07T15:56:57.290Z,60.71
2023-01-07T15:59:29.386Z,60.41
2023-01-07T16:02:15.809Z,60.96
2023-01-07T16:04:48.534Z,60.60
2023-01-07T16:07:24.346Z,61.06
2023-01-07T16:09:53.175Z,60.82
2023-01-07T16:12:34.105Z,60.97
2023-01-07T16:15:04.855Z,61.18
2023-01-07T16:17:35.959Z,61.10
2023-01-07T16:20:12.918Z,61.56
2023-01-07T16:22:42.690Z,61.35
2023-01-07T16:25:21.758Z,61.57
2023-01-07T16:27:51.646Z,61.57
2023-01-07T16:30:20.573Z,61.80
2023-01-07T16:32:50.700Z,61.87
2023-01-07T16:35:22.071Z,61.77
2023-01-07T16:37:50.950Z,61.67
2023-01-07T16:40:25.035Z,61.60
2023-01-07T16:42:53.650Z,61.53
2023-01-07T16:45:31.153Z,61.83
2023-01-07T16:48:20.365Z,61.86
2023-01-07T16:50:50.074Z,61.47
2023-01-07T16:53:27.555Z,61.95
2023-01-07T16:56:10.551Z,62.03
2023-01-07T16:58:42.789Z,62.39
2023-01-07T17:01:12.513Z,62.66
2023-01-07T17:03:53.419Z,63.09
2023-01-07T17:06:25.633Z,63.25
2023-01-07T17:08:56.573Z,62.77
2023-01-07T17:11:32.714Z,63.21
2023-01-07T17:14:01.345Z,63.21
2023-01-07T17:16:32.828Z,63.22
2023-01-07T17:19:27.207Z,63.33
2023-01-07T17:21:56.730Z,63.44
2023-01-07T17:24:47.475Z,63.01
2023-01-07T17:27:29.069Z,63.02
2023-01-07T17:29:57.570Z,63.06
2023-01-07T17:32:25.959Z,63.17
2023-01-07T17:34:56.175Z,63.39
2023-01-07T17:37:24.538Z,63.28
2023-01-07T17:39:53.099Z,63.73
2023-01-07T17:42:41.342Z,63.92
2023-01-07T17:45:15.081Z,63.56
2023-01-07T17:47:43.640Z,63.53
2023-01-07T17:50:15.346Z,63.72
2023-01-07T17:52:46.495Z,64.10
2023-01-07T17:55:17.165Z,63.63
2023-01-07T17:57:45.681Z,63.73
2023-01-07T18:00:17.281Z,64.07
2023-01-07T18:02:46.674Z,63.55
2023-01-07T18:05:19.181Z,64.33
2023-01-07T18:07:47.774Z,63.78
2023-01-07T18:10:17.689Z,63.78
2023-01-07T18:12:48.105Z,63.92
2023-01-07T18:15:22.621Z,64.23
2023-01-07T18:17:51.758Z,64.68
2023-01-07T18:20:23.190Z,64.69
2023-01-07T18:22:51.902Z,64.42
2023-01-07T18:25:21.882Z,64.22
2023-01-07T18:27:52.817Z,64.91
2023-01-07T18:30:22.947Z,64.47
2023-01-07T18:32:53.705Z,64.40
2023-01-07T18:35:23.782Z,64.41
2023-01-07T18:37:52.449Z,64.60
2023-01-07T18:40:21.156Z,64.33
2023-01-07T18:42:49.553Z,64.90
2023-01-07T18:45:18.017Z,64.34
2023-01-07T18:47:47.028Z,64.55
2023-01-07T18:50:16.666Z,64.34
2023-01-07T18:52:46.364Z,64.56
2023-01-07T18:55:17.392Z,64.55
2023-01-07T18:57:46.354Z,64.34
2023-01-07T19:00:15.618Z,64.56
2023-01-07T19:02:44.020Z,64.92
2023-01-07T19:05:12.720Z,65.09
2023-01-07T19:07:41.419Z,65.52
2023-01-07T19:10:11.741Z,65.66
2023-01-07T19:12:43.028Z,65.09
2023-01-07T19:15:12.667Z,65.59
2023-01-07T19:17:42.304Z,65.34
2023-01-07T19:20:12.589Z,65.15
2023-01-07T19:22:40.912Z,65.81
2023-01-07T19:25:11.689Z,65.28
2023-01-07T19:27:40.036Z,65.88
2023-01-07T19:30:09.930Z,65.19
2023-01-07T19:32:38.268Z,65.19
2023-01-07T19:35:08.085Z,65.31
2023-01-07T19:37:38.038Z,65.41
2023-01-07T19:40:07.472Z,65.34
2023-01-07T19:42:37.250Z,65.77
2023-01-07T19:45:06.660Z,65.58
2023-01-07T19:47:35.358Z,65.59
2023-01-07T19:50:03.764Z,65.16
2023-01-07T19:52:32.210Z,65.86
2023-01-07T19:55:00.647Z,65.34
2023-01-07T19:57:29.640Z,65.55
2023-01-07T19:59:59.812Z,65.73
2023-01-07T20:02:28.516Z,65.82
2023-01-07T20:04:57.372Z,65.97
2023-01-07T20:07:25.750Z,65.69
2023-01-07T20:09:54.248Z,65.40
2023-01-07T20:12:22.662Z,65.50
2023-01-07T20:14:51.401Z,65.81
2023-01-07T20:17:21.127Z,65.95
2023-01-07T20:19:49.658Z,65.15
2023-01-07T20:22:17.967Z,65.10
2023-01-07T20:24:46.770Z,65.06
2023-01-07T20:27:15.155Z,64.93
2023-01-07T20:29:43.704Z,65.20
2023-01-07T20:32:12.155Z,65.25
2023-01-07T20:34:41.863Z,65.37
2023-01-07T20:37:10.238Z,65.30
2023-01-07T20:39:38.622Z,65.38
2023-01-07T20:42:07.093Z,65.46
2023-01-07T20:44:35.627Z,65.39
2023-01-07T20:47:04.808Z,65.07
2023-01-07T20:49:33.374Z,65.50
2023-01-07T20:52:08.596Z,65.40
2023-01-07T20:54:36.919Z,65.13
2023-01-07T20:57:05.269Z,65.66
2023-01-07T20:59:33.627Z,65.34
2023-01-07T21:02:02.094Z,65.80
2023-01-07T21:04:30.597Z,65.29
2023-01-07T21:06:58.981Z,65.67
2023-01-07T21:09:34.249Z,65.34
2023-01-07T21:12:04.757Z,65.83
2023-01-07T21:14:33.275Z,65.92
2023-01-07T21:17:01.699Z,66.20
2023-01-07T21:19:30.465Z,66.34
2023-01-07T21:22:00.411Z,66.09
2023-01-07T21:24:30.170Z,66.36
2023-01-07T21:26:58.518Z,66.51
2023-01-07T21:29:27.046Z,65.85
2023-01-07T21:31:55.687Z,66.44
2023-01-07T21:34:24.107Z,65.77
2023-01-07T21:36:52.423Z,66.13
2023-01-07T21:39:23.509Z,66.32
2023-01-07T21:41:53.277Z,65.79
2023-01-07T21:44:21.630Z,66.47
2023-01-07T21:46:50.001Z,65.88
2023-01-07T21:49:19.040Z,66.38
2023-01-07T21:51:49.723Z,66.28
2023-01-07T21:54:18.280Z,66.26
2023-01-07T21:56:46.663Z,66.11
2023-01-07T21:59:16.628Z,66.37
2023-01-07T22:01:45.041Z,66.11
2023-01-07T22:04:13.517Z,66.45
2023-01-07T22:06:42.896Z,65.99
2023-01-07T22:09:14.640Z,66.58
2023-01-07T22:11:44.137Z,66.70
2023-01-07T22:14:15.141Z,66.12
2023-01-07T22:16:47.421Z,65.88
2023-01-07T22:19:17.271Z,66.59
2023-01-07T22:21:45.675Z,66.05
2023-01-07T22:24:14.411Z,66.53
2023-01-07T22:26:43.003Z,66.00
2023-01-07T22:29:11.655Z,66.27
2023-01-07T22:31:40.205Z,66.56
2023-01-07T22:34:10.347Z,66.41
2023-01-07T22:36:45.188Z,66.35
2023-01-07T22:39:18.902Z,66.56
2023-01-07T22:41:48.416Z,66.23
2023-01-07T22:44:21.315Z,65.98
2023-01-07T22:46:51.685Z,66.55
2023-01-07T22:49:26.081Z,66.04
2023-01-07T22:51:54.769Z,66.15
2023-01-07T22:54:23.649Z,66.52
2023-01-07T22:56:52.252Z,66.95
2023-01-07T22:59:20.836Z,66.85
2023-01-07T23:01:49.201Z,66.51
2023-01-07T23:04:17.651Z,66.61
2023-01-07T23:06:47.393Z,66.37
2023-01-07T23:09:15.986Z,66.73
2023-01-07T23:11:50.917Z,66.76
2023-01-07T23:14:21.662Z,66.53
2023-01-07T23:16:51.114Z,66.52
2023-01-07T23:19:20.489Z,66.90
2023-01-07T23:21:52.705Z,66.93
2023-01-07T23:24:21.682Z,66.87
2023-01-07T23:26:51.677Z,67.27
2023-01-07T23:29:20.557Z,67.11
2023-01-07T23:31:50.831Z,66.87
2023-01-07T23:34:19.346Z,66.72
2023-01-07T23:36:47.665Z,67.07
2023-01-07T23:39:17.394Z,67.33
2023-01-07T23:41:45.752Z,66.96
2023-01-07T23:44:14.331Z,67.24
2023-01-07T23:46:42.704Z,67.43
2023-01-07T23:49:11.305Z,67.70
2023-01-07T23:51:41.321Z,67.81
2023-01-07T23:54:09.751Z,67.70
2023-01-07T23:56:39.627Z,67.39
2023-01-07T23:59:07.976Z,67.18
